Time;durP1;ratioP1;P1;durP2;ratioP2;P2;SDS_P1;SDS_P2;PMS_P1;PMS_P2;Temp;Humidity;BMP_temperature;BMP_pressure;BME280_temperature;BME280_humidity;BME280_pressure;Samples;Min_cycle;Max_cycle;Signal;HPM_P1;HPM_P2
2024/01/19 04:56:28;;;;;;;18.70;12.93;;;;;;;4.41;81.58;99434.31;5606339;31;80710;-59
2024/01/19 04:59:31;;;;;;;19.80;12.45;;;;;;;4.41;81.58;99434.31;5583057;31;34111;-59
2024/01/19 05:02:33;;;;;;;21.20;13.27;;;;;;;4.15;86.13;99436.91;5583231;31;33602;-59
2024/01/19 05:05:36;;;;;;;17.52;11.05;;;;;;;4.31;80.52;99452.87;5583106;31;33148;-59
2024/01/19 05:08:39;;;;;;;17.58;11.32;;;;;;;4.22;79.12;99445.41;5583245;32;34241;-58
2024/01/19 05:11:41;;;;;;;16.73;11.10;;;;;;;4.15;79.62;99450.16;5583374;31;33472;-60
2024/01/19 05:14:46;;;;;;;17.25;11.65;;;;;;;4.28;nan;99459.50;5583219;31;33582;-59
2024/01/19 05:17:48;;;;;;;17.05;10.65;;;;;;;4.13;79.62;99464.75;5583073;31;33900;-59
2024/01/19 05:20:51;;;;;;;17.08;11.55;;;;;;;4.33;76.93;99479.94;5582882;31;33603;-59
2024/01/19 05:23:53;;;;;;;17.75;11.25;;;;;;;4.97;98.04;99471.56;5583034;32;33490;-59
2024/01/19 05:26:55;;;;;;;14.43;10.52;;;;;;;5.29;90.18;99473.94;5582737;31;34190;-60
2024/01/19 05:29:58;;;;;;;16.73;10.85;;;;;;;5.50;88.67;99480.03;5583136;31;33570;-59
2024/01/19 05:33:01;;;;;;;16.05;9.80;;;;;;;5.21;89.92;99487.75;5583132;32;34239;-60
2024/01/19 05:36:04;;;;;;;18.67;11.43;;;;;;;5.05;76.10;99494.94;5582863;31;33937;-59
2024/01/19 05:39:07;;;;;;;15.93;10.82;;;;;;;5.28;91.10;99498.13;5582537;32;33661;-60
2024/01/19 05:42:10;;;;;;;14.70;10.68;;;;;;;5.43;87.07;99495.47;5582792;32;34261;-60
2024/01/19 05:45:12;;;;;;;15.80;10.48;;;;;;;5.71;79.79;99514.56;5577682;31;33525;-60
2024/01/19 05:48:15;;;;;;;16.27;10.43;;;;;;;5.26;73.94;99516.19;5563375;32;33504;-59
2024/01/19 05:51:18;;;;;;;15.82;10.80;;;;;;;4.14;74.95;99522.84;5563094;32;33651;-59
2024/01/19 05:54:20;;;;;;;16.48;10.68;;;;;;;4.62;91.64;99543.97;5562995;32;34216;-59
2024/01/19 05:57:25;;;;;;;16.75;10.48;;;;;;;5.07;95.54;99540.62;5562937;32;33610;-59
2024/01/19 06:00:29;;;;;;;18.70;10.98;;;;;;;4.84;76.10;99538.47;5563146;32;33668;-59
2024/01/19 06:03:35;;;;;;;15.57;10.90;;;;;;;4.20;81.57;99537.72;5562935;32;34288;-59
2024/01/19 06:06:37;;;;;;;17.77;11.95;;;;;;;4.15;79.91;99558.91;5555140;32;34255;-59
2024/01/19 06:09:41;;;;;;;16.05;11.23;;;;;;;3.90;80.06;99566.72;5550275;32;33690;-59
2024/01/19 06:12:46;;;;;;;18.80;11.45;;;;;;;4.00;76.30;99561.47;5550349;32;33618;-59
2024/01/19 06:15:49;;;;;;;14.25;10.00;;;;;;;3.85;76.56;99582.63;5557885;32;34358;-59
2024/01/19 06:18:51;;;;;;;16.87;10.88;;;;;;;3.61;78.32;99582.97;5558099;32;33793;-59
2024/01/19 06:21:53;;;;;;;17.77;11.85;;;;;;;3.33;77.89;99604.47;5565028;32;34262;-59
2024/01/19 06:24:59;;;;;;;17.52;11.15;;;;;;;3.48;91.41;99608.03;5563185;32;33551;-58
2024/01/19 06:28:02;;;;;;;16.90;10.18;;;;;;;3.77;82.76;99613.03;5564301;32;33813;-59
2024/01/19 06:31:07;;;;;;;15.38;10.27;;;;;;;3.65;82.64;99609.78;5558958;32;33663;-58
2024/01/19 06:34:11;;;;;;;14.32;9.68;;;;;;;3.89;80.36;99618.16;5564143;32;33630;-58
2024/01/19 06:37:14;;;;;;;13.48;9.18;;;;;;;3.99;79.47;99634.16;5568664;32;33734;-59
2024/01/19 06:40:16;;;;;;;16.05;10.18;;;;;;;3.67;79.42;99619.06;5566801;32;33581;-57
2024/01/19 06:43:18;;;;;;;19.95;10.43;;;;;;;3.59;79.74;99630.13;5567504;32;34307;-59
2024/01/19 06:46:21;;;;;;;16.05;10.60;;;;;;;3.87;80.20;99638.81;5562715;32;33638;-59
2024/01/19 06:49:23;;;;;;;16.23;10.85;;;;;;;3.76;77.95;99652.00;5568953;32;34268;-59
2024/01/19 06:52:26;;;;;;;15.32;9.93;;;;;;;4.07;96.47;99643.47;5567620;32;34347;-59
2024/01/19 06:55:28;;;;;;;15.98;10.25;;;;;;;3.68;74.81;99647.19;5561225;32;33729;-59
2024/01/19 06:58:31;;;;;;;15.77;11.30;;;;;;;3.82;81.95;99644.09;5549185;32;34352;-57
2024/01/19 07:01:34;;;;;;;16.60;10.13;;;;;;;3.76;79.63;99667.91;5567540;32;33407;-59
2024/01/19 07:04:36;;;;;;;15.10;9.02;;;;;;;3.80;83.30;99665.56;5568657;32;31486;-58
2024/01/19 07:07:39;;;;;;;15.38;9.77;;;;;;;3.90;74.03;99680.75;5565772;32;33296;-60
2024/01/19 07:10:42;;;;;;;14.93;9.45;;;;;;;3.71;74.32;99688.28;5561714;32;34301;-58
2024/01/19 07:13:44;;;;;;;18.33;9.73;;;;;;;3.80;78.30;99705.31;5565321;32;33741;-59
2024/01/19 07:16:47;;;;;;;13.35;9.07;;;;;;;4.03;76.43;99717.44;5561167;32;34016;-58
2024/01/19 07:19:49;;;;;;;13.32;8.27;;;;;;;4.20;75.87;99722.62;5565707;32;34312;-58
2024/01/19 07:22:53;;;;;;;18.27;8.05;;;;;;;4.05;71.42;99710.03;5555825;32;33646;-59
2024/01/19 07:25:55;;;;;;;12.75;8.65;;;;;;;4.19;75.80;99735.09;5553969;32;33600;-59
2024/01/19 07:28:58;;;;;;;12.85;8.35;;;;;;;4.20;72.39;99715.44;5559826;32;34322;-59
2024/01/19 07:32:01;;;;;;;11.75;8.20;;;;;;;3.90;76.78;99717.88;5563492;32;33760;-59
2024/01/19 07:35:04;;;;;;;12.82;8.32;;;;;;;3.78;75.94;99730.50;5561132;32;33663;-58
2024/01/19 07:38:06;;;;;;;15.43;8.05;;;;;;;3.75;75.03;99742.41;5559087;32;32560;-59
2024/01/19 07:41:09;;;;;;;15.48;9.30;;;;;;;3.60;76.09;99737.72;5568460;32;33645;-59
2024/01/19 07:44:11;;;;;;;13.27;8.57;;;;;;;3.60;97.33;99743.03;5565771;32;33291;-59
2024/01/19 07:47:14;;;;;;;17.67;8.75;;;;;;;3.83;78.51;99762.34;5565760;32;34377;-55
2024/01/19 07:50:17;;;;;;;11.85;7.60;;;;;;;3.75;79.72;99764.41;5567759;32;34346;-55
2024/01/19 07:53:19;;;;;;;12.20;7.60;;;;;;;3.44;78.36;99775.72;5561382;32;34285;-55
2024/01/19 07:56:22;;;;;;;12.02;7.93;;;;;;;3.28;79.79;99780.06;5557736;32;33379;-55
2024/01/19 07:59:24;;;;;;;13.70;9.15;;;;;;;3.30;81.00;99786.69;5564850;32;33600;-55
2024/01/19 08:02:27;;;;;;;9.85;6.90;;;;;;;3.30;89.42;99794.63;5557038;32;34390;-57
2024/01/19 08:05:29;;;;;;;12.13;7.05;;;;;;;3.43;83.00;99793.47;5556246;32;33346;-55
2024/01/19 08:08:31;;;;;;;12.60;7.62;;;;;;;3.38;83.23;99804.03;5558140;32;33653;-55
2024/01/19 08:11:34;;;;;;;13.30;8.27;;;;;;;3.36;84.32;99792.84;5560345;32;33631;-54
2024/01/19 08:14:37;;;;;;;13.15;8.38;;;;;;;3.25;82.35;99769.94;5551328;32;33663;-55
2024/01/19 08:17:40;;;;;;;13.38;7.78;;;;;;;3.58;93.28;99762.91;5557649;32;33579;-56
2024/01/19 08:20:42;;;;;;;11.73;7.75;;;;;;;3.98;97.34;99763.28;5566987;32;33250;-55
2024/01/19 08:23:45;;;;;;;13.45;8.40;;;;;;;3.82;85.20;99760.75;5562787;32;34339;-55
2024/01/19 08:26:47;;;;;;;11.93;7.93;;;;;;;3.78;84.71;99757.81;5560133;32;33705;-55
2024/01/19 08:29:49;;;;;;;11.45;7.20;;;;;;;3.58;81.91;99757.59;5562172;32;34254;-55
2024/01/19 08:32:52;;;;;;;11.85;8.13;;;;;;;3.46;80.20;99761.19;5563087;32;33701;-55
2024/01/19 08:35:54;;;;;;;12.02;7.55;;;;;;;3.83;100.00;99783.56;5553930;32;33594;-55
2024/01/19 08:38:57;;;;;;;13.38;7.78;;;;;;;3.98;84.74;99805.72;5565986;32;33503;-55
2024/01/19 08:41:59;;;;;;;11.82;7.18;;;;;;;4.30;100.00;99820.06;5563080;32;33594;-55
2024/01/19 08:45:03;;;;;;;13.23;7.10;;;;;;;4.12;80.23;99823.91;5562259;32;33070;-55
2024/01/19 08:48:06;;;;;;;12.35;7.57;;;;;;;4.50;76.61;99832.72;5560315;32;33717;-56
2024/01/19 08:51:08;;;;;;;11.35;7.35;;;;;;;4.82;81.78;99835.34;5564638;32;33556;-56
2024/01/19 08:54:11;;;;;;;11.38;6.90;;;;;;;4.64;71.56;99845.31;5554146;32;34354;-56
2024/01/19 08:57:13;;;;;;;10.45;6.60;;;;;;;4.50;71.32;99840.66;5561122;32;33381;-57
2024/01/19 09:00:16;;;;;;;12.48;7.35;;;;;;;4.61;71.65;99853.00;5563853;32;33635;-56
2024/01/19 09:03:19;;;;;;;11.23;7.05;;;;;;;4.58;76.26;99856.16;5561296;32;34249;-56
2024/01/19 09:06:23;;;;;;;11.63;7.50;;;;;;;4.58;73.41;99859.59;5551964;32;33591;-56
2024/01/19 09:09:26;;;;;;;13.38;7.95;;;;;;;4.57;76.93;99863.31;5560741;32;34376;-56
2024/01/19 09:12:28;;;;;;;12.93;8.20;;;;;;;4.00;73.69;99874.44;5562072;32;33666;-57
2024/01/19 09:15:31;;;;;;;13.27;8.38;;;;;;;4.27;80.09;99882.38;5558615;32;33337;-57
2024/01/19 09:18:35;;;;;;;13.57;8.38;;;;;;;3.63;75.28;99885.66;5559630;32;34306;-56
2024/01/19 09:21:39;;;;;;;14.38;8.57;;;;;;;3.48;75.82;99898.75;5557845;32;34259;-56
2024/01/19 09:24:42;;;;;;;12.57;8.65;;;;;;;3.35;79.23;99901.75;5552894;32;32361;-56
2024/01/19 09:27:47;;;;;;;13.75;8.63;;;;;;;3.33;76.92;99898.53;5554423;32;33738;-56
2024/01/19 09:30:49;;;;;;;13.45;8.80;;;;;;;3.58;80.69;99911.31;5556795;32;34095;-57
2024/01/19 09:33:52;;;;;;;13.88;8.35;;;;;;;3.86;87.38;99926.25;5561601;32;33660;-57
2024/01/19 09:36:54;;;;;;;13.90;8.45;;;;;;;3.60;78.12;99930.41;5560437;32;33212;-57
2024/01/19 09:39:57;;;;;;;13.90;9.40;;;;;;;3.82;75.94;99941.84;5562836;32;33942;-56
2024/01/19 09:42:59;;;;;;;15.85;8.60;;;;;;;3.56;72.77;99938.06;5563294;32;34004;-56
2024/01/19 09:46:06;;;;;;;17.65;9.48;;;;;;;3.64;82.93;99942.97;5563014;32;33544;-57
2024/01/19 09:49:44;;;;;;;16.27;8.90;;;;;;;3.66;84.04;99937.41;5568528;32;33688;-56
2024/01/19 09:52:59;;;;;;;14.38;9.98;;;;;;;3.69;78.58;99947.50;5555672;32;33710;-57
2024/01/19 09:56:01;;;;;;;14.63;9.75;;;;;;;3.89;100.00;99952.28;5561394;32;32203;-57
2024/01/19 09:59:07;;;;;;;17.70;9.75;;;;;;;3.86;100.00;99960.72;5564053;32;34480;-56
2024/01/19 10:02:12;;;;;;;15.65;10.13;;;;;;;4.06;82.91;99966.28;5559515;32;33472;-56
2024/01/19 10:05:16;;;;;;;17.50;10.00;;;;;;;3.20;86.83;99968.53;5558113;32;33355;-58
2024/01/19 10:08:19;;;;;;;15.75;10.27;;;;;;;3.26;97.15;99984.25;5557705;32;34513;-59
2024/01/19 10:11:22;;;;;;;18.15;10.45;;;;;;;3.11;100.00;99975.25;5565278;32;33585;-59
2024/01/19 10:14:26;;;;;;;18.60;9.57;;;;;;;3.62;100.00;99976.84;5565605;32;34018;-59
2024/01/19 10:17:29;;;;;;;16.17;10.23;;;;;;;3.46;91.02;99977.66;5562348;32;31874;-59
2024/01/19 10:20:32;;;;;;;14.85;10.40;;;;;;;3.49;89.97;99966.59;5554750;32;33460;-59
2024/01/19 10:23:35;;;;;;;18.70;10.77;;;;;;;3.31;100.00;99964.97;5561092;32;34308;-59
2024/01/19 10:26:38;;;;;;;16.70;10.68;;;;;;;3.26;91.96;99972.88;5562966;32;33595;-59
2024/01/19 10:29:40;;;;;;;16.30;10.32;;;;;;;3.06;90.54;99986.59;5565469;32;33360;-59
2024/01/19 10:32:44;;;;;;;16.80;10.45;;;;;;;2.96;93.18;99994.37;5555951;32;33696;-59
2024/01/19 10:35:47;;;;;;;17.12;10.82;;;;;;;3.08;92.17;100021.59;5551452;32;33600;-58
2024/01/19 10:38:50;;;;;;;15.20;10.30;;;;;;;3.16;96.24;100023.84;5560407;32;33279;-59
2024/01/19 10:42:05;;;;;;;16.80;10.18;;;;;;;3.09;95.33;100031.13;5567186;32;33142;-60
2024/01/19 10:45:19;;;;;;;16.90;11.15;;;;;;;3.29;96.73;100036.75;5566857;32;33278;-58
2024/01/19 10:48:26;;;;;;;15.30;10.15;;;;;;;3.22;95.32;100030.81;5561007;32;33631;-59
2024/01/19 10:51:29;;;;;;;17.37;10.55;;;;;;;3.35;93.01;100045.62;5564425;32;33749;-59
2024/01/19 10:54:32;;;;;;;20.83;11.38;;;;;;;3.46;100.00;100060.63;5564334;32;33317;-59
2024/01/19 10:57:34;;;;;;;19.12;10.93;;;;;;;3.49;96.42;100084.00;5564982;32;33744;-59
2024/01/19 11:00:38;;;;;;;15.25;10.38;;;;;;;3.40;92.29;100092.56;5558490;32;33660;-59
2024/01/19 11:03:43;;;;;;;18.00;9.73;;;;;;;3.25;90.57;100106.38;5564553;32;33189;-59
2024/01/19 11:06:45;;;;;;;16.02;10.55;;;;;;;3.37;99.53;100119.53;5579414;31;35704;-59
2024/01/19 11:09:47;;;;;;;17.35;11.23;;;;;;;3.13;90.05;100126.81;5563109;32;34371;-59
2024/01/19 11:12:54;;;;;;;16.70;10.90;;;;;;;3.27;88.84;100134.22;5563470;32;34500;-59
2024/01/19 11:16:00;;;;;;;15.90;10.48;;;;;;;3.59;98.17;100135.56;5565432;32;33523;-57
2024/01/19 11:19:05;;;;;;;33.65;12.37;;;;;;;3.60;98.86;100142.47;5558767;32;33299;-56
2024/01/19 11:22:08;;;;;;;16.15;11.20;;;;;;;3.71;100.00;100145.06;5559166;32;33871;-57
2024/01/19 11:25:15;;;;;;;17.62;11.23;;;;;;;3.79;93.12;100162.41;5559615;32;33778;-56
2024/01/19 11:28:24;;;;;;;17.40;10.98;;;;;;;3.70;85.36;100158.53;5556358;32;31473;-57
2024/01/19 11:31:33;;;;;;;18.10;10.75;;;;;;;3.77;84.81;100161.81;5560510;32;34386;-57
2024/01/19 11:34:41;;;;;;;17.08;11.23;;;;;;;3.72;86.11;100154.59;5565117;32;33750;-56
2024/01/19 11:37:46;;;;;;;16.77;10.77;;;;;;;3.21;86.84;100156.38;5560826;32;33679;-56
2024/01/19 11:40:49;;;;;;;16.77;11.20;;;;;;;3.21;95.51;100166.97;5559730;32;33245;-57
2024/01/19 11:43:53;;;;;;;17.17;11.57;;;;;;;3.16;98.92;100163.41;5564552;32;33781;-57
2024/01/19 11:46:56;;;;;;;18.80;12.18;;;;;;;3.25;98.39;100157.50;5567473;31;33658;-56
2024/01/19 11:50:05;;;;;;;26.02;12.10;;;;;;;2.90;89.44;100162.13;5563063;32;33493;-56
2024/01/19 11:53:08;;;;;;;19.10;11.02;;;;;;;3.36;100.00;100163.78;5559555;32;33273;-56
2024/01/19 11:56:21;;;;;;;21.08;12.43;;;;;;;3.26;91.79;100175.00;5563169;32;33738;-56
2024/01/19 11:59:24;;;;;;;20.25;12.37;;;;;;;3.89;100.00;100177.69;5558488;32;34488;-56
2024/01/19 12:02:31;;;;;;;19.80;12.30;;;;;;;3.79;99.04;100172.22;5563053;32;34389;-57
2024/01/19 12:05:36;;;;;;;20.08;12.35;;;;;;;3.35;97.88;100174.62;5560018;32;33379;-56
2024/01/19 12:08:38;;;;;;;62.55;15.05;;;;;;;3.49;100.00;100168.78;5565150;32;33696;-57
2024/01/19 12:11:41;;;;;;;19.98;13.57;;;;;;;3.84;100.00;100172.28;5564524;32;31530;-57
2024/01/19 12:14:44;;;;;;;22.10;12.75;;;;;;;3.43;90.60;100179.53;5552139;32;33707;-57
2024/01/19 12:17:47;;;;;;;19.33;12.88;;;;;;;3.36;91.29;100195.59;5564370;32;31953;-56
2024/01/19 12:20:54;;;;;;;21.62;13.55;;;;;;;3.32;100.00;100198.97;5561353;32;33884;-56
2024/01/19 12:23:57;;;;;;;20.83;13.75;;;;;;;3.52;100.00;100207.28;5560241;32;33450;-56
2024/01/19 12:27:00;;;;;;;21.75;13.80;;;;;;;3.86;95.75;100223.25;5563313;32;33843;-56
2024/01/19 12:30:12;;;;;;;20.62;13.25;;;;;;;3.86;94.15;100231.19;5561716;32;34358;-56
2024/01/19 12:33:18;;;;;;;19.58;13.25;;;;;;;3.76;90.32;100222.00;5561224;32;32339;-56
2024/01/19 12:36:24;;;;;;;20.65;13.93;;;;;;;3.63;94.11;100224.97;5554352;32;32182;-56
2024/01/19 12:39:27;;;;;;;20.30;14.02;;;;;;;3.52;94.03;100217.88;5563332;32;33725;-56
2024/01/19 12:42:35;;;;;;;20.83;12.50;;;;;;;3.53;97.08;100222.12;5567645;32;34153;-57
2024/01/19 12:45:37;;;;;;;21.55;13.48;;;;;;;3.48;88.20;100224.69;5553653;32;33401;-57
2024/01/19 12:48:40;;;;;;;21.20;13.35;;;;;;;3.89;100.00;100226.22;5560390;32;34448;-57
2024/01/19 12:51:42;;;;;;;21.37;14.23;;;;;;;3.88;100.00;100229.12;5565475;32;33610;-57
2024/01/19 12:54:46;;;;;;;20.30;13.27;;;;;;;3.74;97.43;100244.50;5558219;32;33607;-57
2024/01/19 12:57:49;;;;;;;19.70;13.55;;;;;;;3.83;87.47;100263.50;5557997;32;31747;-57
2024/01/19 13:00:52;;;;;;;20.48;13.45;;;;;;;3.93;100.00;100268.97;5557865;32;33690;-56
2024/01/19 13:03:58;;;;;;;21.50;13.52;;;;;;;3.95;100.00;100272.19;5555706;32;33311;-56
2024/01/19 13:07:01;;;;;;;22.02;13.43;;;;;;;3.98;86.90;100279.69;5561223;32;33660;-57
2024/01/19 13:10:05;;;;;;;19.17;12.63;;;;;;;4.06;94.57;100289.09;5562210;32;34313;-56
2024/01/19 13:13:09;;;;;;;20.77;14.25;;;;;;;4.05;90.21;100285.63;5565861;32;33576;-56
2024/01/19 13:16:14;;;;;;;23.33;12.68;;;;;;;4.03;86.97;100282.41;5564455;32;34637;-56
2024/01/19 13:19:17;;;;;;;19.85;13.45;;;;;;;4.52;100.00;100284.53;5569165;32;33750;-57
2024/01/19 13:22:19;;;;;;;19.45;13.23;;;;;;;4.86;100.00;100283.44;5564264;32;33709;-56
2024/01/19 13:25:22;;;;;;;23.15;13.80;;;;;;;4.85;99.87;100303.09;5561977;32;33606;-56
2024/01/19 13:28:24;;;;;;;21.25;14.10;;;;;;;4.67;100.00;100308.69;5559012;32;33598;-57
2024/01/19 13:31:27;;;;;;;21.35;14.13;;;;;;;4.95;100.00;100329.78;5560476;32;33752;-57
2024/01/19 13:34:29;;;;;;;20.67;13.95;;;;;;;4.58;86.81;100340.12;5558092;32;33130;-56
2024/01/19 13:37:32;;;;;;;18.27;12.27;;;;;;;4.70;100.00;100348.81;5561020;32;34287;-59
2024/01/19 13:40:35;;;;;;;21.12;14.15;;;;;;;4.71;100.00;100352.28;5558135;32;33731;-59
2024/01/19 13:43:41;;;;;;;19.48;12.57;;;;;;;4.50;94.58;100359.09;5567796;32;34832;-59
2024/01/19 13:46:43;;;;;;;21.23;13.30;;;;;;;4.87;100.00;100353.31;5562181;32;33723;-60
2024/01/19 13:49:46;;;;;;;24.92;14.93;;;;;;;4.94;100.00;100368.03;5563096;32;33777;-59
2024/01/19 13:52:49;;;;;;;19.75;14.52;;;;;;;5.07;100.00;100352.81;5568845;32;33423;-59
2024/01/19 13:55:52;;;;;;;21.60;14.10;;;;;;;5.12;100.00;100366.16;5561074;31;33729;-59
2024/01/19 13:58:54;;;;;;;21.17;14.05;;;;;;;5.12;100.00;100374.12;5566352;32;33385;-59
2024/01/19 14:01:57;;;;;;;23.62;13.43;;;;;;;4.77;100.00;100385.84;5568996;32;33478;-59
2024/01/19 14:05:03;;;;;;;19.87;12.55;;;;;;;4.71;100.00;100382.28;5566345;32;33293;-59
2024/01/19 14:08:07;;;;;;;17.73;11.65;;;;;;;4.62;95.93;100399.66;5568381;32;33217;-59
2024/01/19 14:11:10;;;;;;;19.05;12.68;;;;;;;4.57;83.90;100415.53;5567428;32;33675;-59
2024/01/19 14:14:12;;;;;;;19.73;12.85;;;;;;;4.40;83.72;100425.28;5567376;32;33672;-59
2024/01/19 14:17:15;;;;;;;20.45;12.48;;;;;;;4.41;94.90;100419.75;5566212;32;34391;-59
2024/01/19 14:20:17;;;;;;;22.35;13.57;;;;;;;4.82;100.00;100423.09;5562573;32;33640;-59
2024/01/19 14:23:20;;;;;;;21.92;14.35;;;;;;;4.51;100.00;100418.31;5557980;32;34170;-59
2024/01/19 14:26:23;;;;;;;18.58;12.93;;;;;;;4.69;100.00;100420.75;5567920;32;34556;-59
2024/01/19 14:29:26;;;;;;;20.60;13.07;;;;;;;4.61;100.00;100429.91;5562863;32;33740;-59
2024/01/19 14:32:33;;;;;;;20.50;12.73;;;;;;;4.36;92.61;100438.22;5565006;32;33713;-58
2024/01/19 14:35:39;;;;;;;22.50;14.30;;;;;;;4.43;89.65;100454.81;5566855;32;33345;-58
2024/01/19 14:38:42;;;;;;;22.45;15.32;;;;;;;4.34;88.70;100466.88;5565831;32;33740;-59
2024/01/19 14:41:44;;;;;;;21.73;16.73;;;;;;;4.38;88.22;100470.66;5567916;32;34383;-60
2024/01/19 14:44:46;;;;;;;21.17;15.15;;;;;;;4.34;94.63;100484.59;5566113;32;33491;-58
2024/01/19 14:47:49;;;;;;;26.48;19.98;;;;;;;4.35;100.00;100495.00;5565510;32;34324;-59
2024/01/19 14:50:51;;;;;;;23.30;17.05;;;;;;;4.50;100.00;100497.13;5564767;32;35769;-59
2024/01/19 14:53:54;;;;;;;24.25;16.40;;;;;;;4.45;95.27;100513.78;5567046;32;33632;-57
2024/01/19 14:56:59;;;;;;;22.87;15.52;;;;;;;4.42;100.00;100524.06;5564103;32;34382;-60
2024/01/19 15:00:03;;;;;;;20.52;14.32;;;;;;;4.39;91.31;100525.34;5566935;31;34324;-59
2024/01/19 15:03:06;;;;;;;21.05;13.30;;;;;;;4.36;90.94;100522.34;5567758;32;33850;-59
2024/01/19 15:06:08;;;;;;;23.35;14.23;;;;;;;4.43;95.51;100523.00;5559616;32;33681;-59
2024/01/19 15:09:11;;;;;;;21.65;14.02;;;;;;;4.30;90.48;100523.28;5558040;32;33810;-59
2024/01/19 15:12:13;;;;;;;21.02;13.77;;;;;;;4.48;100.00;100533.75;5558776;32;34352;-59
2024/01/19 15:15:15;;;;;;;25.62;15.07;;;;;;;4.37;100.00;100535.41;5565300;32;34302;-59
2024/01/19 15:18:18;;;;;;;22.35;14.02;;;;;;;4.39;93.80;100532.50;5568647;32;34571;-59
2024/01/19 15:21:24;;;;;;;22.58;13.98;;;;;;;4.55;100.00;100546.88;5566993;32;33769;-58
2024/01/19 15:24:26;;;;;;;18.77;11.35;;;;;;;4.80;88.18;100546.53;5560124;32;33647;-59
2024/01/19 15:27:28;;;;;;;18.58;12.60;;;;;;;4.61;78.47;100561.88;5564828;32;34442;-60
2024/01/19 15:30:32;;;;;;;19.75;13.48;;;;;;;4.49;89.63;100575.16;5568617;32;34408;-58
2024/01/19 15:33:44;;;;;;;18.37;12.73;;;;;;;4.43;95.54;100584.06;5566112;32;33994;-58
2024/01/19 15:36:47;;;;;;;16.35;9.90;;;;;;;4.63;100.00;100587.13;5560396;32;34475;-59
2024/01/19 15:39:49;;;;;;;19.33;11.18;;;;;;;4.35;70.63;100587.09;5567122;32;33718;-59
2024/01/19 15:42:52;;;;;;;19.23;10.90;;;;;;;4.43;87.27;100595.50;5568322;32;34283;-59
2024/01/19 15:45:54;;;;;;;18.55;11.57;;;;;;;4.61;100.00;100599.84;5567788;32;34270;-58
2024/01/19 15:48:57;;;;;;;16.65;10.57;;;;;;;4.49;100.00;100609.69;5560883;32;33942;-59
2024/01/19 15:52:07;;;;;;;17.98;11.30;;;;;;;4.47;100.00;100617.09;5565503;32;33765;-58
2024/01/19 15:55:09;;;;;;;18.02;11.95;;;;;;;4.61;100.00;100618.44;5568775;32;34319;-55
2024/01/19 15:58:12;;;;;;;14.65;9.52;;;;;;;4.54;100.00;100625.72;5566785;32;33737;-56
2024/01/19 16:01:15;;;;;;;15.23;9.90;;;;;;;4.42;82.29;100620.44;5565879;32;34428;-57
2024/01/19 16:04:18;;;;;;;15.68;9.95;;;;;;;4.30;74.84;100634.75;5558949;32;33519;-57
2024/01/19 16:07:20;;;;;;;10.25;6.75;;;;;;;4.14;72.60;100637.09;5568466;32;34347;-57
2024/01/19 16:10:22;;;;;;;11.82;7.90;;;;;;;4.30;88.93;100648.81;5569316;32;34431;-56
2024/01/19 16:13:26;;;;;;;12.60;7.60;;;;;;;4.71;100.00;100660.31;5568754;32;34127;-56
2024/01/19 16:16:29;;;;;;;9.70;6.75;;;;;;;4.54;78.36;100660.25;5569219;32;34403;-57
2024/01/19 16:19:32;;;;;;;11.02;6.25;;;;;;;4.79;100.00;100667.91;5568964;32;33650;-57
2024/01/19 16:22:34;;;;;;;10.00;5.82;;;;;;;4.58;61.53;100677.31;5568275;32;33587;-56
2024/01/19 16:25:39;;;;;;;8.75;5.40;;;;;;;4.07;59.28;100672.69;5568870;32;34397;-56
2024/01/19 16:28:42;;;;;;;11.93;6.10;;;;;;;4.07;61.12;100673.50;5568179;32;33763;-57
2024/01/19 16:31:44;;;;;;;10.90;5.90;;;;;;;3.95;68.01;100675.34;5567455;32;34381;-56
2024/01/19 16:34:46;;;;;;;10.48;6.10;;;;;;;3.87;60.79;100675.69;5565478;32;33724;-56
2024/01/19 16:37:49;;;;;;;12.23;6.90;;;;;;;3.73;64.08;100689.13;5565580;32;33045;-56
2024/01/19 16:40:51;;;;;;;10.43;5.68;;;;;;;3.86;59.09;100676.72;5568956;32;34337;-56
2024/01/19 16:43:54;;;;;;;31.15;22.35;;;;;;;3.67;66.36;100689.25;5566842;32;34530;-56
2024/01/19 16:46:57;;;;;;;12.20;6.85;;;;;;;4.13;73.62;100699.13;5559716;32;33721;-56
2024/01/19 16:49:59;;;;;;;12.27;6.25;;;;;;;3.96;81.78;100691.03;5568315;32;33777;-56
2024/01/19 16:53:02;;;;;;;21.48;15.70;;;;;;;3.94;64.01;100702.91;5568739;32;34285;-56
2024/01/19 16:56:06;;;;;;;14.87;9.68;;;;;;;4.13;65.33;100698.31;5567311;32;34528;-57
2024/01/19 16:59:09;;;;;;;11.63;6.22;;;;;;;4.03;61.85;100706.03;5567554;32;34425;-56
2024/01/19 17:02:11;;;;;;;11.90;6.45;;;;;;;3.82;61.07;100702.91;5562573;32;33741;-56
2024/01/19 17:05:16;;;;;;;8.65;5.78;;;;;;;3.64;60.32;100724.16;5564782;32;34326;-56
2024/01/19 17:08:18;;;;;;;12.23;6.07;;;;;;;3.47;61.62;100721.34;5565252;32;33732;-55
